sensor_id;sensor_type;location;lat;lon;timestamp;P1;durP1;ratioP1;P2;durP2;ratioP2
21729;SDS011;11027;51.030;13.812;2022-11-15T00:01:35;47.65;;;33.83;;
21729;SDS011;11027;51.030;13.812;2022-11-15T00:04:02;45.33;;;33.15;;
21729;SDS011;11027;51.030;13.812;2022-11-15T00:06:28;48.38;;;33.83;;
21729;SDS011;11027;51.030;13.812;2022-11-15T00:08:53;46.53;;;33.20;;
21729;SDS011;11027;51.030;13.812;2022-11-15T00:11:18;47.30;;;34.45;;
21729;SDS011;11027;51.030;13.812;2022-11-15T00:13:44;44.08;;;33.35;;
21729;SDS011;11027;51.030;13.812;2022-11-15T00:16:09;48.58;;;34.08;;
21729;SDS011;11027;51.030;13.812;2022-11-15T00:18:35;46.20;;;33.40;;
21729;SDS011;11027;51.030;13.812;2022-11-15T00:21:04;46.15;;;33.75;;
21729;SDS011;11027;51.030;13.812;2022-11-15T00:23:32;54.57;;;33.60;;
21729;SDS011;11027;51.030;13.812;2022-11-15T00:25:58;45.45;;;33.17;;
21729;SDS011;11027;51.030;13.812;2022-11-15T00:28:24;49.60;;;34.58;;
21729;SDS011;11027;51.030;13.812;2022-11-15T00:30:49;50.30;;;34.67;;
21729;SDS011;11027;51.030;13.812;2022-11-15T00:33:15;56.78;;;36.05;;
21729;SDS011;11027;51.030;13.812;2022-11-15T00:35:40;49.80;;;34.92;;
21729;SDS011;11027;51.030;13.812;2022-11-15T00:38:05;48.28;;;34.95;;
21729;SDS011;11027;51.030;13.812;2022-11-15T00:40:31;49.70;;;35.08;;
21729;SDS011;11027;51.030;13.812;2022-11-15T00:42:56;49.80;;;35.72;;
21729;SDS011;11027;51.030;13.812;2022-11-15T00:45:22;51.10;;;35.85;;
21729;SDS011;11027;51.030;13.812;2022-11-15T00:47:48;51.42;;;35.17;;
21729;SDS011;11027;51.030;13.812;2022-11-15T00:50:13;50.92;;;35.72;;
21729;SDS011;11027;51.030;13.812;2022-11-15T00:52:39;51.83;;;36.10;;
21729;SDS011;11027;51.030;13.812;2022-11-15T00:55:04;53.95;;;36.42;;
21729;SDS011;11027;51.030;13.812;2022-11-15T00:57:29;48.35;;;35.58;;
21729;SDS011;11027;51.030;13.812;2022-11-15T00:59:55;54.50;;;36.75;;
21729;SDS011;11027;51.030;13.812;2022-11-15T01:02:20;53.15;;;37.42;;
21729;SDS011;11027;51.030;13.812;2022-11-15T01:04:45;52.42;;;37.20;;
21729;SDS011;11027;51.030;13.812;2022-11-15T01:07:11;53.90;;;36.95;;
21729;SDS011;11027;51.030;13.812;2022-11-15T01:09:36;52.53;;;37.45;;
21729;SDS011;11027;51.030;13.812;2022-11-15T01:12:01;55.63;;;38.55;;
21729;SDS011;11027;51.030;13.812;2022-11-15T01:14:27;51.95;;;36.58;;
21729;SDS011;11027;51.030;13.812;2022-11-15T01:16:52;55.17;;;37.78;;
21729;SDS011;11027;51.030;13.812;2022-11-15T01:19:17;56.00;;;37.30;;
21729;SDS011;11027;51.030;13.812;2022-11-15T01:21:43;54.20;;;38.72;;
21729;SDS011;11027;51.030;13.812;2022-11-15T01:24:10;53.63;;;36.70;;
21729;SDS011;11027;51.030;13.812;2022-11-15T01:26:37;53.38;;;36.55;;
21729;SDS011;11027;51.030;13.812;2022-11-15T01:29:02;54.85;;;37.28;;
21729;SDS011;11027;51.030;13.812;2022-11-15T01:31:28;55.03;;;38.17;;
21729;SDS011;11027;51.030;13.812;2022-11-15T01:33:53;54.17;;;37.20;;
21729;SDS011;11027;51.030;13.812;2022-11-15T01:36:19;58.80;;;37.70;;
21729;SDS011;11027;51.030;13.812;2022-11-15T01:38:47;55.95;;;38.55;;
21729;SDS011;11027;51.030;13.812;2022-11-15T01:41:18;56.92;;;37.83;;
21729;SDS011;11027;51.030;13.812;2022-11-15T01:43:46;57.42;;;38.15;;
21729;SDS011;11027;51.030;13.812;2022-11-15T01:48:59;55.72;;;38.28;;
21729;SDS011;11027;51.030;13.812;2022-11-15T01:51:27;53.67;;;37.30;;
21729;SDS011;11027;51.030;13.812;2022-11-15T01:53:57;56.83;;;37.67;;
21729;SDS011;11027;51.030;13.812;2022-11-15T01:56:27;56.53;;;37.42;;
21729;SDS011;11027;51.030;13.812;2022-11-15T01:58:58;57.30;;;37.75;;
21729;SDS011;11027;51.030;13.812;2022-11-15T02:01:25;56.75;;;38.33;;
21729;SDS011;11027;51.030;13.812;2022-11-15T02:03:57;59.97;;;37.85;;
21729;SDS011;11027;51.030;13.812;2022-11-15T02:06:26;57.58;;;37.95;;
21729;SDS011;11027;51.030;13.812;2022-11-15T02:08:51;60.17;;;39.17;;
21729;SDS011;11027;51.030;13.812;2022-11-15T02:11:18;54.10;;;36.70;;
21729;SDS011;11027;51.030;13.812;2022-11-15T02:13:43;57.55;;;37.83;;
21729;SDS011;11027;51.030;13.812;2022-11-15T02:18:59;58.17;;;36.83;;
21729;SDS011;11027;51.030;13.812;2022-11-15T02:21:28;54.92;;;37.28;;
21729;SDS011;11027;51.030;13.812;2022-11-15T02:32:31;55.20;;;35.53;;
21729;SDS011;11027;51.030;13.812;2022-11-15T02:35:18;52.78;;;35.35;;
21729;SDS011;11027;51.030;13.812;2022-11-15T02:37:56;55.75;;;36.60;;
21729;SDS011;11027;51.030;13.812;2022-11-15T02:40:33;53.28;;;35.58;;
21729;SDS011;11027;51.030;13.812;2022-11-15T02:43:09;54.53;;;36.25;;
21729;SDS011;11027;51.030;13.812;2022-11-15T02:46:03;55.42;;;36.53;;
21729;SDS011;11027;51.030;13.812;2022-11-15T02:48:35;53.00;;;35.33;;
21729;SDS011;11027;51.030;13.812;2022-11-15T02:51:01;52.92;;;34.63;;
21729;SDS011;11027;51.030;13.812;2022-11-15T02:53:27;53.00;;;34.75;;
21729;SDS011;11027;51.030;13.812;2022-11-15T02:55:52;53.47;;;34.97;;
21729;SDS011;11027;51.030;13.812;2022-11-15T03:07:07;50.60;;;32.53;;
21729;SDS011;11027;51.030;13.812;2022-11-15T03:09:40;53.13;;;34.92;;
21729;SDS011;11027;51.030;13.812;2022-11-15T03:12:12;56.22;;;34.40;;
21729;SDS011;11027;51.030;13.812;2022-11-15T03:14:50;51.28;;;33.40;;
21729;SDS011;11027;51.030;13.812;2022-11-15T03:17:27;56.10;;;34.85;;
21729;SDS011;11027;51.030;13.812;2022-11-15T03:19:58;53.67;;;33.30;;
21729;SDS011;11027;51.030;13.812;2022-11-15T03:22:26;52.53;;;34.53;;
21729;SDS011;11027;51.030;13.812;2022-11-15T03:24:54;50.97;;;33.08;;
21729;SDS011;11027;51.030;13.812;2022-11-15T03:27:24;51.40;;;32.42;;
21729;SDS011;11027;51.030;13.812;2022-11-15T03:29:57;48.45;;;32.10;;
21729;SDS011;11027;51.030;13.812;2022-11-15T03:32:28;51.55;;;32.92;;
21729;SDS011;11027;51.030;13.812;2022-11-15T03:35:00;48.40;;;32.08;;
21729;SDS011;11027;51.030;13.812;2022-11-15T03:37:40;51.65;;;33.30;;
21729;SDS011;11027;51.030;13.812;2022-11-15T03:40:10;54.95;;;33.28;;
21729;SDS011;11027;51.030;13.812;2022-11-15T03:42:38;47.97;;;31.30;;
21729;SDS011;11027;51.030;13.812;2022-11-15T03:45:27;54.05;;;32.65;;
21729;SDS011;11027;51.030;13.812;2022-11-15T03:48:02;50.70;;;32.42;;
21729;SDS011;11027;51.030;13.812;2022-11-15T03:50:34;51.70;;;31.25;;
21729;SDS011;11027;51.030;13.812;2022-11-15T03:52:59;51.60;;;32.58;;
21729;SDS011;11027;51.030;13.812;2022-11-15T03:55:25;50.67;;;32.00;;
21729;SDS011;11027;51.030;13.812;2022-11-15T03:57:51;48.53;;;31.55;;
21729;SDS011;11027;51.030;13.812;2022-11-15T04:00:19;47.53;;;30.20;;
21729;SDS011;11027;51.030;13.812;2022-11-15T04:02:44;51.53;;;31.63;;
21729;SDS011;11027;51.030;13.812;2022-11-15T04:05:10;46.83;;;30.98;;
21729;SDS011;11027;51.030;13.812;2022-11-15T04:07:35;46.83;;;30.75;;
21729;SDS011;11027;51.030;13.812;2022-11-15T04:10:00;46.40;;;30.23;;
21729;SDS011;11027;51.030;13.812;2022-11-15T04:12:35;45.92;;;29.38;;
21729;SDS011;11027;51.030;13.812;2022-11-15T04:15:08;44.25;;;29.77;;
21729;SDS011;11027;51.030;13.812;2022-11-15T04:17:48;44.65;;;28.80;;
21729;SDS011;11027;51.030;13.812;2022-11-15T04:20:25;48.22;;;30.50;;
21729;SDS011;11027;51.030;13.812;2022-11-15T04:23:21;46.90;;;29.80;;
21729;SDS011;11027;51.030;13.812;2022-11-15T04:26:11;44.88;;;29.13;;
21729;SDS011;11027;51.030;13.812;2022-11-15T04:28:39;46.53;;;28.35;;
21729;SDS011;11027;51.030;13.812;2022-11-15T04:31:24;43.90;;;28.92;;
21729;SDS011;11027;51.030;13.812;2022-11-15T04:33:50;44.55;;;29.20;;
21729;SDS011;11027;51.030;13.812;2022-11-15T04:36:15;48.42;;;29.35;;
21729;SDS011;11027;51.030;13.812;2022-11-15T04:38:58;45.65;;;29.02;;
21729;SDS011;11027;51.030;13.812;2022-11-15T04:41:24;46.15;;;29.33;;
21729;SDS011;11027;51.030;13.812;2022-11-15T04:43:49;45.40;;;29.83;;
21729;SDS011;11027;51.030;13.812;2022-11-15T04:46:14;42.45;;;28.70;;
21729;SDS011;11027;51.030;13.812;2022-11-15T04:48:39;45.92;;;28.67;;
21729;SDS011;11027;51.030;13.812;2022-11-15T04:51:05;43.67;;;28.67;;
21729;SDS011;11027;51.030;13.812;2022-11-15T04:53:30;44.15;;;29.55;;
21729;SDS011;11027;51.030;13.812;2022-11-15T04:55:55;45.10;;;29.80;;
21729;SDS011;11027;51.030;13.812;2022-11-15T04:58:20;45.25;;;29.02;;
21729;SDS011;11027;51.030;13.812;2022-11-15T05:00:46;46.42;;;29.25;;
21729;SDS011;11027;51.030;13.812;2022-11-15T05:03:11;45.67;;;30.27;;
21729;SDS011;11027;51.030;13.812;2022-11-15T05:05:55;45.75;;;29.08;;
21729;SDS011;11027;51.030;13.812;2022-11-15T05:08:22;46.13;;;29.58;;
21729;SDS011;11027;51.030;13.812;2022-11-15T05:10:47;42.95;;;28.25;;
21729;SDS011;11027;51.030;13.812;2022-11-15T05:13:13;45.30;;;30.02;;
21729;SDS011;11027;51.030;13.812;2022-11-15T05:15:38;46.78;;;29.45;;
21729;SDS011;11027;51.030;13.812;2022-11-15T05:18:03;45.97;;;28.75;;
21729;SDS011;11027;51.030;13.812;2022-11-15T05:20:29;49.20;;;29.33;;
21729;SDS011;11027;51.030;13.812;2022-11-15T05:22:54;43.85;;;29.13;;
21729;SDS011;11027;51.030;13.812;2022-11-15T05:25:20;50.05;;;30.05;;
21729;SDS011;11027;51.030;13.812;2022-11-15T05:27:46;47.42;;;28.02;;
21729;SDS011;11027;51.030;13.812;2022-11-15T05:30:11;47.35;;;28.70;;
21729;SDS011;11027;51.030;13.812;2022-11-15T05:32:37;46.95;;;28.90;;
21729;SDS011;11027;51.030;13.812;2022-11-15T05:35:02;44.13;;;29.00;;
21729;SDS011;11027;51.030;13.812;2022-11-15T05:37:31;42.80;;;28.83;;
21729;SDS011;11027;51.030;13.812;2022-11-15T05:39:57;45.45;;;29.35;;
21729;SDS011;11027;51.030;13.812;2022-11-15T05:42:22;46.25;;;29.20;;
21729;SDS011;11027;51.030;13.812;2022-11-15T05:44:50;42.65;;;28.05;;
21729;SDS011;11027;51.030;13.812;2022-11-15T05:47:19;47.95;;;30.33;;
21729;SDS011;11027;51.030;13.812;2022-11-15T05:49:48;46.15;;;28.27;;
21729;SDS011;11027;51.030;13.812;2022-11-15T05:52:17;44.47;;;29.00;;
21729;SDS011;11027;51.030;13.812;2022-11-15T05:54:45;43.33;;;28.27;;
21729;SDS011;11027;51.030;13.812;2022-11-15T05:57:11;43.30;;;28.02;;
21729;SDS011;11027;51.030;13.812;2022-11-15T05:59:36;42.65;;;27.30;;
21729;SDS011;11027;51.030;13.812;2022-11-15T06:02:03;40.65;;;27.17;;
21729;SDS011;11027;51.030;13.812;2022-11-15T06:04:28;42.38;;;27.52;;
21729;SDS011;11027;51.030;13.812;2022-11-15T06:06:53;45.17;;;28.73;;
21729;SDS011;11027;51.030;13.812;2022-11-15T06:09:18;42.33;;;27.38;;
21729;SDS011;11027;51.030;13.812;2022-11-15T06:11:44;42.05;;;27.23;;
21729;SDS011;11027;51.030;13.812;2022-11-15T06:14:09;46.38;;;29.27;;
21729;SDS011;11027;51.030;13.812;2022-11-15T06:16:34;45.40;;;28.98;;
21729;SDS011;11027;51.030;13.812;2022-11-15T06:18:59;45.90;;;28.00;;
21729;SDS011;11027;51.030;13.812;2022-11-15T06:21:25;43.50;;;28.13;;
21729;SDS011;11027;51.030;13.812;2022-11-15T06:23:52;45.08;;;28.25;;
21729;SDS011;11027;51.030;13.812;2022-11-15T06:26:18;43.92;;;28.95;;
21729;SDS011;11027;51.030;13.812;2022-11-15T06:28:43;46.60;;;28.23;;
21729;SDS011;11027;51.030;13.812;2022-11-15T06:31:09;45.13;;;28.63;;
21729;SDS011;11027;51.030;13.812;2022-11-15T06:33:38;44.53;;;28.13;;
21729;SDS011;11027;51.030;13.812;2022-11-15T06:36:04;44.55;;;26.63;;
21729;SDS011;11027;51.030;13.812;2022-11-15T06:38:34;40.10;;;26.90;;
21729;SDS011;11027;51.030;13.812;2022-11-15T06:41:03;41.75;;;26.80;;
21729;SDS011;11027;51.030;13.812;2022-11-15T06:43:29;36.78;;;25.50;;
21729;SDS011;11027;51.030;13.812;2022-11-15T06:45:55;45.60;;;27.27;;
21729;SDS011;11027;51.030;13.812;2022-11-15T06:48:20;41.80;;;26.75;;
21729;SDS011;11027;51.030;13.812;2022-11-15T06:50:55;35.70;;;24.75;;
21729;SDS011;11027;51.030;13.812;2022-11-15T06:53:23;37.45;;;24.75;;
21729;SDS011;11027;51.030;13.812;2022-11-15T06:55:48;40.05;;;24.27;;
21729;SDS011;11027;51.030;13.812;2022-11-15T06:58:14;37.35;;;24.42;;
21729;SDS011;11027;51.030;13.812;2022-11-15T07:00:40;38.70;;;24.63;;
21729;SDS011;11027;51.030;13.812;2022-11-15T07:03:05;36.08;;;23.17;;
21729;SDS011;11027;51.030;13.812;2022-11-15T07:05:30;38.63;;;24.48;;
21729;SDS011;11027;51.030;13.812;2022-11-15T07:07:56;37.35;;;25.15;;
21729;SDS011;11027;51.030;13.812;2022-11-15T07:10:23;37.92;;;23.75;;
21729;SDS011;11027;51.030;13.812;2022-11-15T07:12:52;39.67;;;25.23;;
21729;SDS011;11027;51.030;13.812;2022-11-15T07:15:19;40.67;;;25.77;;
21729;SDS011;11027;51.030;13.812;2022-11-15T07:17:46;41.42;;;26.48;;
21729;SDS011;11027;51.030;13.812;2022-11-15T07:20:12;42.08;;;26.27;;
21729;SDS011;11027;51.030;13.812;2022-11-15T07:22:38;44.28;;;27.30;;
21729;SDS011;11027;51.030;13.812;2022-11-15T07:25:04;43.97;;;27.27;;
21729;SDS011;11027;51.030;13.812;2022-11-15T07:27:30;38.75;;;25.40;;
21729;SDS011;11027;51.030;13.812;2022-11-15T07:29:55;41.70;;;26.67;;
21729;SDS011;11027;51.030;13.812;2022-11-15T07:32:20;43.85;;;27.30;;
21729;SDS011;11027;51.030;13.812;2022-11-15T07:34:46;46.95;;;28.67;;
21729;SDS011;11027;51.030;13.812;2022-11-15T07:37:11;42.20;;;27.00;;
21729;SDS011;11027;51.030;13.812;2022-11-15T07:39:37;43.55;;;27.23;;
21729;SDS011;11027;51.030;13.812;2022-11-15T07:42:02;40.50;;;26.92;;
21729;SDS011;11027;51.030;13.812;2022-11-15T07:44:46;44.08;;;27.13;;
21729;SDS011;11027;51.030;13.812;2022-11-15T07:47:12;41.38;;;26.15;;
21729;SDS011;11027;51.030;13.812;2022-11-15T07:49:37;42.75;;;26.05;;
21729;SDS011;11027;51.030;13.812;2022-11-15T07:52:03;42.75;;;26.60;;
21729;SDS011;11027;51.030;13.812;2022-11-15T07:54:28;45.13;;;29.02;;
21729;SDS011;11027;51.030;13.812;2022-11-15T07:56:53;42.20;;;27.60;;
21729;SDS011;11027;51.030;13.812;2022-11-15T07:59:18;48.75;;;28.00;;
21729;SDS011;11027;51.030;13.812;2022-11-15T08:01:44;46.33;;;27.13;;
21729;SDS011;11027;51.030;13.812;2022-11-15T08:04:10;39.83;;;25.63;;
21729;SDS011;11027;51.030;13.812;2022-11-15T08:06:36;40.17;;;25.30;;
21729;SDS011;11027;51.030;13.812;2022-11-15T08:09:01;39.55;;;25.73;;
21729;SDS011;11027;51.030;13.812;2022-11-15T08:11:26;40.38;;;25.73;;
21729;SDS011;11027;51.030;13.812;2022-11-15T08:13:52;37.85;;;24.90;;
21729;SDS011;11027;51.030;13.812;2022-11-15T08:16:17;38.75;;;24.77;;
21729;SDS011;11027;51.030;13.812;2022-11-15T08:18:42;35.97;;;23.85;;
21729;SDS011;11027;51.030;13.812;2022-11-15T08:21:08;39.63;;;24.80;;
21729;SDS011;11027;51.030;13.812;2022-11-15T08:23:34;36.28;;;23.73;;
21729;SDS011;11027;51.030;13.812;2022-11-15T08:26:00;40.17;;;25.13;;
21729;SDS011;11027;51.030;13.812;2022-11-15T08:28:27;36.58;;;24.90;;
21729;SDS011;11027;51.030;13.812;2022-11-15T08:30:52;37.63;;;24.10;;
21729;SDS011;11027;51.030;13.812;2022-11-15T08:33:17;37.80;;;23.92;;
21729;SDS011;11027;51.030;13.812;2022-11-15T08:35:43;35.00;;;23.90;;
21729;SDS011;11027;51.030;13.812;2022-11-15T08:38:08;36.92;;;24.45;;
21729;SDS011;11027;51.030;13.812;2022-11-15T08:40:34;41.58;;;25.00;;
21729;SDS011;11027;51.030;13.812;2022-11-15T08:43:00;34.97;;;23.75;;
21729;SDS011;11027;51.030;13.812;2022-11-15T08:45:27;38.63;;;24.15;;
21729;SDS011;11027;51.030;13.812;2022-11-15T08:47:53;35.30;;;22.88;;
21729;SDS011;11027;51.030;13.812;2022-11-15T08:50:18;37.08;;;24.75;;
21729;SDS011;11027;51.030;13.812;2022-11-15T08:52:43;37.83;;;24.52;;
21729;SDS011;11027;51.030;13.812;2022-11-15T08:55:09;36.15;;;23.42;;
21729;SDS011;11027;51.030;13.812;2022-11-15T08:57:34;36.78;;;24.27;;
21729;SDS011;11027;51.030;13.812;2022-11-15T08:59:59;40.55;;;26.50;;
21729;SDS011;11027;51.030;13.812;2022-11-15T09:02:24;38.78;;;23.50;;
21729;SDS011;11027;51.030;13.812;2022-11-15T09:04:50;35.72;;;23.42;;
21729;SDS011;11027;51.030;13.812;2022-11-15T09:07:15;34.65;;;23.08;;
21729;SDS011;11027;51.030;13.812;2022-11-15T09:09:40;38.75;;;25.90;;
21729;SDS011;11027;51.030;13.812;2022-11-15T09:12:06;37.95;;;23.88;;
21729;SDS011;11027;51.030;13.812;2022-11-15T09:14:32;37.85;;;23.95;;
21729;SDS011;11027;51.030;13.812;2022-11-15T09:16:57;36.42;;;24.13;;
21729;SDS011;11027;51.030;13.812;2022-11-15T09:19:23;37.22;;;24.50;;
21729;SDS011;11027;51.030;13.812;2022-11-15T09:21:48;40.53;;;24.13;;
21729;SDS011;11027;51.030;13.812;2022-11-15T09:24:14;33.58;;;22.58;;
21729;SDS011;11027;51.030;13.812;2022-11-15T09:26:39;32.72;;;21.58;;
21729;SDS011;11027;51.030;13.812;2022-11-15T09:29:05;33.53;;;22.30;;
21729;SDS011;11027;51.030;13.812;2022-11-15T09:31:31;34.83;;;22.95;;
21729;SDS011;11027;51.030;13.812;2022-11-15T09:33:56;30.20;;;20.75;;
21729;SDS011;11027;51.030;13.812;2022-11-15T09:36:22;32.85;;;21.45;;
21729;SDS011;11027;51.030;13.812;2022-11-15T09:38:47;33.35;;;21.40;;
21729;SDS011;11027;51.030;13.812;2022-11-15T09:49:02;30.77;;;20.88;;
21729;SDS011;11027;51.030;13.812;2022-11-15T09:51:30;29.45;;;20.13;;
21729;SDS011;11027;51.030;13.812;2022-11-15T09:54:10;32.22;;;20.40;;
21729;SDS011;11027;51.030;13.812;2022-11-15T09:56:44;28.58;;;19.40;;
21729;SDS011;11027;51.030;13.812;2022-11-15T10:02:17;26.73;;;18.27;;
21729;SDS011;11027;51.030;13.812;2022-11-15T10:04:44;29.17;;;19.50;;
21729;SDS011;11027;51.030;13.812;2022-11-15T10:07:13;28.30;;;18.88;;
21729;SDS011;11027;51.030;13.812;2022-11-15T10:09:46;26.13;;;18.25;;
21729;SDS011;11027;51.030;13.812;2022-11-15T10:12:16;28.88;;;19.10;;
21729;SDS011;11027;51.030;13.812;2022-11-15T10:14:42;29.95;;;18.45;;
21729;SDS011;11027;51.030;13.812;2022-11-15T10:17:20;28.52;;;18.45;;
21729;SDS011;11027;51.030;13.812;2022-11-15T10:20:12;25.27;;;17.00;;
21729;SDS011;11027;51.030;13.812;2022-11-15T10:25:18;26.13;;;16.63;;
21729;SDS011;11027;51.030;13.812;2022-11-15T10:28:01;28.27;;;17.67;;
21729;SDS011;11027;51.030;13.812;2022-11-15T10:30:36;28.52;;;17.60;;
21729;SDS011;11027;51.030;13.812;2022-11-15T10:33:25;27.10;;;17.88;;
21729;SDS011;11027;51.030;13.812;2022-11-15T10:41:36;26.75;;;17.77;;
21729;SDS011;11027;51.030;13.812;2022-11-15T10:46:42;30.17;;;18.73;;
21729;SDS011;11027;51.030;13.812;2022-11-15T10:49:13;28.42;;;17.92;;
21729;SDS011;11027;51.030;13.812;2022-11-15T10:51:49;29.25;;;18.00;;
21729;SDS011;11027;51.030;13.812;2022-11-15T10:54:28;26.58;;;17.40;;
21729;SDS011;11027;51.030;13.812;2022-11-15T10:56:59;26.92;;;17.70;;
21729;SDS011;11027;51.030;13.812;2022-11-15T10:59:30;26.33;;;17.55;;
21729;SDS011;11027;51.030;13.812;2022-11-15T11:01:58;26.90;;;17.65;;
21729;SDS011;11027;51.030;13.812;2022-11-15T11:04:24;26.50;;;17.92;;
21729;SDS011;11027;51.030;13.812;2022-11-15T11:06:53;25.85;;;17.83;;
21729;SDS011;11027;51.030;13.812;2022-11-15T11:09:35;25.65;;;17.23;;
21729;SDS011;11027;51.030;13.812;2022-11-15T11:12:04;25.00;;;15.88;;
21729;SDS011;11027;51.030;13.812;2022-11-15T11:14:34;23.80;;;16.17;;
21729;SDS011;11027;51.030;13.812;2022-11-15T11:17:06;25.40;;;17.23;;
21729;SDS011;11027;51.030;13.812;2022-11-15T11:19:43;22.83;;;16.05;;
21729;SDS011;11027;51.030;13.812;2022-11-15T11:28:11;23.77;;;16.55;;
21729;SDS011;11027;51.030;13.812;2022-11-15T11:30:47;24.92;;;16.35;;
21729;SDS011;11027;51.030;13.812;2022-11-15T11:33:34;22.40;;;15.18;;
21729;SDS011;11027;51.030;13.812;2022-11-15T11:47:32;24.48;;;15.50;;
21729;SDS011;11027;51.030;13.812;2022-11-15T11:50:20;23.25;;;16.08;;
21729;SDS011;11027;51.030;13.812;2022-11-15T11:55:28;26.88;;;16.50;;
21729;SDS011;11027;51.030;13.812;2022-11-15T11:58:11;25.67;;;17.10;;
21729;SDS011;11027;51.030;13.812;2022-11-15T12:00:54;24.92;;;15.88;;
21729;SDS011;11027;51.030;13.812;2022-11-15T12:09:13;26.40;;;16.08;;
21729;SDS011;11027;51.030;13.812;2022-11-15T12:17:10;21.30;;;14.93;;
21729;SDS011;11027;51.030;13.812;2022-11-15T12:19:37;20.90;;;14.55;;
21729;SDS011;11027;51.030;13.812;2022-11-15T12:22:09;21.10;;;14.40;;
21729;SDS011;11027;51.030;13.812;2022-11-15T12:24:43;22.65;;;15.82;;
21729;SDS011;11027;51.030;13.812;2022-11-15T12:30:18;21.27;;;14.98;;
21729;SDS011;11027;51.030;13.812;2022-11-15T12:32:58;22.77;;;15.70;;
21729;SDS011;11027;51.030;13.812;2022-11-15T12:35:35;21.02;;;15.35;;
21729;SDS011;11027;51.030;13.812;2022-11-15T12:38:02;22.10;;;15.00;;
21729;SDS011;11027;51.030;13.812;2022-11-15T12:40:34;21.17;;;14.60;;
21729;SDS011;11027;51.030;13.812;2022-11-15T12:46:04;19.95;;;14.60;;
21729;SDS011;11027;51.030;13.812;2022-11-15T12:48:45;20.17;;;14.13;;
21729;SDS011;11027;51.030;13.812;2022-11-15T12:53:38;19.93;;;14.13;;
21729;SDS011;11027;51.030;13.812;2022-11-15T12:58:50;20.60;;;14.43;;
21729;SDS011;11027;51.030;13.812;2022-11-15T13:06:53;21.05;;;14.38;;
21729;SDS011;11027;51.030;13.812;2022-11-15T13:12:03;20.77;;;14.02;;
21729;SDS011;11027;51.030;13.812;2022-11-15T13:17:37;18.98;;;14.38;;
21729;SDS011;11027;51.030;13.812;2022-11-15T13:23:17;18.15;;;13.85;;
21729;SDS011;11027;51.030;13.812;2022-11-15T13:28:02;21.52;;;14.45;;
21729;SDS011;11027;51.030;13.812;2022-11-15T13:30:49;18.98;;;14.30;;
21729;SDS011;11027;51.030;13.812;2022-11-15T13:33:18;19.40;;;13.68;;
21729;SDS011;11027;51.030;13.812;2022-11-15T13:35:53;19.65;;;14.25;;
21729;SDS011;11027;51.030;13.812;2022-11-15T13:40:49;18.80;;;13.75;;
21729;SDS011;11027;51.030;13.812;2022-11-15T13:48:38;21.73;;;15.80;;
21729;SDS011;11027;51.030;13.812;2022-11-15T13:51:07;20.75;;;14.55;;
21729;SDS011;11027;51.030;13.812;2022-11-15T13:54:33;21.85;;;15.40;;
21729;SDS011;11027;51.030;13.812;2022-11-15T13:56:45;21.38;;;14.75;;
21729;SDS011;11027;51.030;13.812;2022-11-15T13:59:34;20.70;;;15.70;;
21729;SDS011;11027;51.030;13.812;2022-11-15T14:02:34;23.30;;;15.95;;
21729;SDS011;11027;51.030;13.812;2022-11-15T14:04:54;19.58;;;15.07;;
21729;SDS011;11027;51.030;13.812;2022-11-15T14:07:23;22.17;;;15.25;;
21729;SDS011;11027;51.030;13.812;2022-11-15T14:09:50;19.95;;;14.93;;
21729;SDS011;11027;51.030;13.812;2022-11-15T14:12:32;20.02;;;14.88;;
21729;SDS011;11027;51.030;13.812;2022-11-15T14:15:17;20.90;;;15.32;;
21729;SDS011;11027;51.030;13.812;2022-11-15T14:17:49;21.13;;;15.35;;
21729;SDS011;11027;51.030;13.812;2022-11-15T14:20:28;20.92;;;15.85;;
21729;SDS011;11027;51.030;13.812;2022-11-15T14:23:03;23.50;;;16.65;;
21729;SDS011;11027;51.030;13.812;2022-11-15T14:25:51;20.42;;;15.10;;
21729;SDS011;11027;51.030;13.812;2022-11-15T14:30:44;25.20;;;16.00;;
21729;SDS011;11027;51.030;13.812;2022-11-15T14:33:22;22.80;;;16.08;;
21729;SDS011;11027;51.030;13.812;2022-11-15T14:35:53;23.67;;;16.45;;
21729;SDS011;11027;51.030;13.812;2022-11-15T14:38:19;21.67;;;15.38;;
21729;SDS011;11027;51.030;13.812;2022-11-15T14:40:44;22.83;;;15.57;;
21729;SDS011;11027;51.030;13.812;2022-11-15T14:43:10;24.23;;;16.75;;
21729;SDS011;11027;51.030;13.812;2022-11-15T14:45:36;24.95;;;16.77;;
21729;SDS011;11027;51.030;13.812;2022-11-15T14:48:02;23.13;;;16.77;;
21729;SDS011;11027;51.030;13.812;2022-11-15T14:50:27;22.30;;;15.68;;
21729;SDS011;11027;51.030;13.812;2022-11-15T14:52:52;23.42;;;16.13;;
21729;SDS011;11027;51.030;13.812;2022-11-15T14:55:22;25.95;;;17.35;;
21729;SDS011;11027;51.030;13.812;2022-11-15T14:57:49;24.17;;;16.70;;
21729;SDS011;11027;51.030;13.812;2022-11-15T15:00:15;27.17;;;17.27;;
21729;SDS011;11027;51.030;13.812;2022-11-15T15:02:41;25.30;;;16.45;;
21729;SDS011;11027;51.030;13.812;2022-11-15T15:05:12;24.23;;;16.55;;
21729;SDS011;11027;51.030;13.812;2022-11-15T15:07:45;25.85;;;17.45;;
21729;SDS011;11027;51.030;13.812;2022-11-15T15:10:10;25.42;;;16.98;;
21729;SDS011;11027;51.030;13.812;2022-11-15T15:12:36;27.35;;;17.33;;
21729;SDS011;11027;51.030;13.812;2022-11-15T15:15:02;27.63;;;18.00;;
21729;SDS011;11027;51.030;13.812;2022-11-15T15:17:28;25.27;;;17.67;;
21729;SDS011;11027;51.030;13.812;2022-11-15T15:19:53;24.55;;;16.77;;
21729;SDS011;11027;51.030;13.812;2022-11-15T15:22:19;27.92;;;18.45;;
21729;SDS011;11027;51.030;13.812;2022-11-15T15:24:47;26.05;;;18.30;;
21729;SDS011;11027;51.030;13.812;2022-11-15T15:27:13;28.27;;;18.10;;
21729;SDS011;11027;51.030;13.812;2022-11-15T15:29:38;27.13;;;18.60;;
21729;SDS011;11027;51.030;13.812;2022-11-15T15:32:04;27.40;;;18.17;;
21729;SDS011;11027;51.030;13.812;2022-11-15T15:34:30;29.50;;;18.75;;
21729;SDS011;11027;51.030;13.812;2022-11-15T15:37:18;27.92;;;19.02;;
21729;SDS011;11027;51.030;13.812;2022-11-15T15:39:52;26.58;;;18.15;;
21729;SDS011;11027;51.030;13.812;2022-11-15T15:42:19;27.67;;;18.13;;
21729;SDS011;11027;51.030;13.812;2022-11-15T15:44:45;35.53;;;23.42;;
21729;SDS011;11027;51.030;13.812;2022-11-15T15:47:15;39.88;;;26.50;;
21729;SDS011;11027;51.030;13.812;2022-11-15T15:49:44;30.25;;;19.55;;
21729;SDS011;11027;51.030;13.812;2022-11-15T15:52:10;31.27;;;17.85;;
21729;SDS011;11027;51.030;13.812;2022-11-15T15:54:36;26.52;;;19.05;;
21729;SDS011;11027;51.030;13.812;2022-11-15T15:57:02;27.92;;;18.63;;
21729;SDS011;11027;51.030;13.812;2022-11-15T15:59:27;29.65;;;19.35;;
21729;SDS011;11027;51.030;13.812;2022-11-15T16:01:53;31.25;;;19.40;;
21729;SDS011;11027;51.030;13.812;2022-11-15T16:04:18;28.65;;;19.13;;
21729;SDS011;11027;51.030;13.812;2022-11-15T16:06:44;29.45;;;18.95;;
21729;SDS011;11027;51.030;13.812;2022-11-15T16:09:13;30.05;;;18.83;;
21729;SDS011;11027;51.030;13.812;2022-11-15T16:11:40;29.98;;;19.08;;
21729;SDS011;11027;51.030;13.812;2022-11-15T16:14:06;27.92;;;18.45;;